createdAt,value
2023-01-10T00:00:26.782Z,64.75
2023-01-10T00:05:28.518Z,65.11
2023-01-10T00:10:30.893Z,64.81
2023-01-10T00:15:33.826Z,64.55
2023-01-10T00:20:35.913Z,63.04
2023-01-10T00:25:37.829Z,62.24
2023-01-10T00:30:40.710Z,62.30
2023-01-10T00:35:42.709Z,62.48
2023-01-10T00:40:46.058Z,62.37
2023-01-10T00:45:48.244Z,62.56
2023-01-10T00:50:50.050Z,61.98
2023-01-10T00:55:51.709Z,60.89
2023-01-10T01:00:53.432Z,59.34
2023-01-10T01:05:55.161Z,58.11
2023-01-10T01:10:56.927Z,66.52
2023-01-10T01:15:59.796Z,61.76
2023-01-10T01:21:03.624Z,59.92
2023-01-10T01:26:06.546Z,57.86
2023-01-10T01:31:09.592Z,59.15
2023-01-10T01:36:12.663Z,67.78
2023-01-10T01:41:32.912Z,64.65
2023-01-10T01:46:39.305Z,60.28
2023-01-10T01:51:41.317Z,57.86
2023-01-10T01:56:53.596Z,64.62
2023-01-10T02:02:00.586Z,61.15
2023-01-10T02:07:03.053Z,58.73
2023-01-10T02:12:05.484Z,65.36
2023-01-10T02:17:10.221Z,64.00
2023-01-10T02:22:49.689Z,62.02
2023-01-10T02:28:16.981Z,58.27
2023-01-10T02:33:53.973Z,64.48
2023-01-10T02:39:04.659Z,63.96
2023-01-10T02:44:19.876Z,62.79
2023-01-10T02:49:21.617Z,63.00
2023-01-10T02:54:27.707Z,62.44
2023-01-10T02:59:35.607Z,61.59
2023-01-10T03:04:45.761Z,60.43
2023-01-10T03:10:10.723Z,60.19
2023-01-10T03:15:17.854Z,59.57
2023-01-10T03:20:23.393Z,57.62
2023-01-10T03:25:34.220Z,60.85
2023-01-10T03:30:42.394Z,69.46
2023-01-10T03:36:01.141Z,68.16
2023-01-10T03:41:35.362Z,65.29
2023-01-10T03:46:52.533Z,65.65
2023-01-10T03:51:56.859Z,65.39
2023-01-10T03:56:58.590Z,65.47
2023-01-10T04:02:00.417Z,65.78
2023-01-10T04:07:02.437Z,66.53
2023-01-10T04:12:04.282Z,67.95
2023-01-10T04:17:06.209Z,69.23
2023-01-10T04:22:09.724Z,70.77
2023-01-10T04:27:11.447Z,70.52
2023-01-10T04:32:13.406Z,71.32
2023-01-10T04:37:15.082Z,70.27
2023-01-10T04:42:17.257Z,68.21
2023-01-10T04:47:19.125Z,67.48
2023-01-10T04:52:21.124Z,66.88
2023-01-10T04:57:22.812Z,66.72
2023-01-10T05:02:24.567Z,67.22
2023-01-10T05:07:26.305Z,66.29
2023-01-10T05:12:27.983Z,67.24
2023-01-10T05:17:29.723Z,66.65
2023-01-10T05:22:31.787Z,65.99
2023-01-10T05:27:33.551Z,64.98
2023-01-10T05:32:35.231Z,66.40
2023-01-10T05:37:38.131Z,65.21
2023-01-10T05:42:40.127Z,64.60
2023-01-10T05:47:42.780Z,64.88
2023-01-10T05:52:44.545Z,64.68
2023-01-10T05:57:46.283Z,64.59
2023-01-10T06:02:48.082Z,64.85
2023-01-10T06:07:50.682Z,64.11
2023-01-10T06:12:52.568Z,63.32
2023-01-10T06:17:54.639Z,61.90
2023-01-10T06:22:56.801Z,61.90
2023-01-10T06:27:58.481Z,62.29
2023-01-10T06:33:02.701Z,62.00
2023-01-10T06:38:05.006Z,62.21
2023-01-10T06:43:06.819Z,63.09
2023-01-10T06:48:08.692Z,63.05
2023-01-10T06:53:10.421Z,64.07
2023-01-10T06:58:12.096Z,63.63
2023-01-10T07:03:13.813Z,63.58
2023-01-10T07:08:16.188Z,64.21
2023-01-10T07:13:17.910Z,64.36
2023-01-10T07:18:19.774Z,65.94
2023-01-10T07:23:21.632Z,65.45
2023-01-10T07:28:23.730Z,64.63
2023-01-10T07:33:25.416Z,67.16
2023-01-10T07:38:27.200Z,67.47
2023-01-10T07:43:29.451Z,67.26
2023-01-10T07:48:31.344Z,67.45
2023-01-10T07:53:33.378Z,68.04
2023-01-10T07:58:35.778Z,67.38
2023-01-10T08:03:37.803Z,67.48
2023-01-10T08:08:39.621Z,67.50
2023-01-10T08:13:41.350Z,67.63
2023-01-10T08:18:43.439Z,68.12
2023-01-10T08:23:45.209Z,66.78
2023-01-10T08:28:47.045Z,67.51
2023-01-10T08:33:48.863Z,68.45
2023-01-10T08:38:51.203Z,69.71
2023-01-10T08:43:53.075Z,70.03
2023-01-10T08:48:54.790Z,68.80
2023-01-10T08:53:56.514Z,68.23
2023-01-10T08:58:58.243Z,68.50
2023-01-10T09:04:00.072Z,68.82
2023-01-10T09:09:01.839Z,71.03
2023-01-10T09:14:03.559Z,73.01
2023-01-10T09:19:05.625Z,73.54
2023-01-10T09:24:14.858Z,73.58
2023-01-10T09:29:16.692Z,72.53
2023-01-10T09:34:18.461Z,73.29
2023-01-10T09:39:21.637Z,73.38
2023-01-10T09:44:48.143Z,73.35
2023-01-10T09:49:58.038Z,73.18
2023-01-10T09:55:25.382Z,74.03
2023-01-10T10:00:51.680Z,73.72
2023-01-10T10:06:00.817Z,74.60
2023-01-10T10:11:27.250Z,74.36
2023-01-10T10:16:44.251Z,71.94
2023-01-10T10:22:04.466Z,70.38
2023-01-10T10:27:23.887Z,71.75
2023-01-10T10:32:38.110Z,73.78
2023-01-10T10:37:45.885Z,72.62
2023-01-10T10:42:51.009Z,73.29
2023-01-10T10:48:13.282Z,72.95
2023-01-10T10:53:14.979Z,74.58
2023-01-10T10:58:18.175Z,74.42
2023-01-10T11:03:42.816Z,75.47
2023-01-10T11:08:48.571Z,74.95
2023-01-10T11:13:55.823Z,75.97
2023-01-10T11:19:24.133Z,75.29
2023-01-10T11:24:38.063Z,73.96
2023-01-10T11:29:50.748Z,75.00
2023-01-10T11:35:00.926Z,75.03
2023-01-10T11:40:26.685Z,75.67
2023-01-10T11:45:32.090Z,75.78
2023-01-10T11:50:43.235Z,73.87
2023-01-10T11:55:48.644Z,73.80
2023-01-10T12:00:50.450Z,72.59
2023-01-10T12:05:57.013Z,70.12
2023-01-10T12:11:15.333Z,71.47
2023-01-10T12:16:22.542Z,72.89
2023-01-10T12:21:45.565Z,70.67
2023-01-10T12:26:51.110Z,73.29
2023-01-10T12:31:54.935Z,73.88
2023-01-10T12:37:14.745Z,74.75
2023-01-10T12:42:43.592Z,74.42
2023-01-10T12:48:06.595Z,76.23
2023-01-10T12:53:17.587Z,76.25
2023-01-10T12:58:24.044Z,74.76
2023-01-10T13:03:33.226Z,74.17
2023-01-10T13:08:37.855Z,75.70
2023-01-10T13:13:48.575Z,75.03
2023-01-10T13:19:27.528Z,76.87
2023-01-10T13:24:29.280Z,76.78
2023-01-10T13:29:41.845Z,77.02
2023-01-10T13:34:43.819Z,78.81
2023-01-10T13:39:52.625Z,79.06
2023-01-10T13:45:03.618Z,79.16
2023-01-10T13:50:33.656Z,78.97
2023-01-10T13:55:53.394Z,78.41
2023-01-10T14:01:19.912Z,77.42
2023-01-10T14:06:37.978Z,77.95
2023-01-10T14:11:42.709Z,76.50
2023-01-10T14:16:48.907Z,75.59
2023-01-10T14:21:56.199Z,76.73
2023-01-10T14:27:01.274Z,75.51
2023-01-10T14:32:12.227Z,76.57
2023-01-10T14:37:37.351Z,77.23
2023-01-10T14:42:39.311Z,76.14
2023-01-10T14:47:41.064Z,76.87
2023-01-10T14:52:43.442Z,76.25
2023-01-10T14:57:56.412Z,77.60
2023-01-10T15:03:01.825Z,77.74
2023-01-10T15:08:23.482Z,76.55
2023-01-10T15:13:28.406Z,76.81
2023-01-10T15:18:43.772Z,76.49
2023-01-10T15:23:47.070Z,76.83
2023-01-10T15:29:13.245Z,75.84
2023-01-10T15:34:26.542Z,75.00
2023-01-10T15:39:37.475Z,74.41
2023-01-10T15:44:52.455Z,75.66
2023-01-10T15:49:54.504Z,76.84
2023-01-10T15:54:57.124Z,76.41
2023-01-10T16:00:00.333Z,74.62
2023-01-10T16:05:08.887Z,75.20
2023-01-10T16:10:21.633Z,75.13
2023-01-10T16:15:26.330Z,76.05
2023-01-10T16:20:41.152Z,75.77
2023-01-10T16:25:47.164Z,76.44
2023-01-10T16:30:49.129Z,76.96
2023-01-10T16:35:53.172Z,76.37
2023-01-10T16:41:00.517Z,75.37
2023-01-10T16:46:03.671Z,74.77
2023-01-10T16:51:16.930Z,74.08
2023-01-10T16:56:24.765Z,73.19
2023-01-10T17:01:30.972Z,73.15
2023-01-10T17:06:32.888Z,73.77
2023-01-10T17:11:40.593Z,73.98
2023-01-10T17:16:42.402Z,73.57
2023-01-10T17:21:44.137Z,73.01
2023-01-10T17:26:46.047Z,71.71
2023-01-10T17:31:47.728Z,71.86
2023-01-10T17:36:49.458Z,71.30
2023-01-10T17:41:51.155Z,71.77
2023-01-10T17:46:55.163Z,71.67
2023-01-10T17:51:58.900Z,69.63
2023-01-10T17:57:01.655Z,68.54
2023-01-10T18:02:03.680Z,68.28
2023-01-10T18:07:05.635Z,67.08
2023-01-10T18:12:07.579Z,67.32
2023-01-10T18:17:11.511Z,68.36
2023-01-10T18:22:32.140Z,68.96
2023-01-10T18:27:33.959Z,67.36
2023-01-10T18:32:35.857Z,66.03
2023-01-10T18:37:39.327Z,66.66
2023-01-10T18:42:41.110Z,65.80
2023-01-10T18:47:42.834Z,66.26
2023-01-10T18:52:44.523Z,66.40
2023-01-10T18:57:46.793Z,67.58
2023-01-10T19:02:48.565Z,68.31
2023-01-10T19:07:50.332Z,67.11
2023-01-10T19:12:52.313Z,65.20
2023-01-10T19:17:57.167Z,64.51
2023-01-10T19:22:59.013Z,65.80
2023-01-10T19:28:02.586Z,66.47
2023-01-10T19:33:05.758Z,67.99
2023-01-10T19:38:07.599Z,68.78
2023-01-10T19:43:09.387Z,69.60
2023-01-10T19:48:11.103Z,69.41
2023-01-10T19:53:14.619Z,69.12
2023-01-10T19:58:16.358Z,68.21
2023-01-10T20:03:18.105Z,68.17
2023-01-10T20:08:22.759Z,70.43
2023-01-10T20:13:25.359Z,70.40
2023-01-10T20:18:28.146Z,68.45
2023-01-10T20:23:31.385Z,68.02
2023-01-10T20:28:34.444Z,67.74
2023-01-10T20:33:36.284Z,68.17
2023-01-10T20:38:38.690Z,68.17
2023-01-10T20:43:40.831Z,67.67
2023-01-10T20:48:43.405Z,68.14
2023-01-10T20:53:45.198Z,68.08
2023-01-10T20:58:47.957Z,67.20
2023-01-10T21:03:49.938Z,68.15
2023-01-10T21:08:51.755Z,67.22
2023-01-10T21:13:53.449Z,65.65
2023-01-10T21:18:55.195Z,65.69
2023-01-10T21:23:56.929Z,67.57
2023-01-10T21:28:58.655Z,67.71
2023-01-10T21:34:00.379Z,66.58
2023-01-10T21:39:02.093Z,64.73
2023-01-10T21:44:05.604Z,64.98
2023-01-10T21:49:07.333Z,63.42
2023-01-10T21:54:09.077Z,62.59
2023-01-10T21:59:10.837Z,63.99
2023-01-10T22:04:16.267Z,65.32
2023-01-10T22:09:19.374Z,65.91
2023-01-10T22:14:22.622Z,66.39
2023-01-10T22:19:24.447Z,64.37
2023-01-10T22:24:26.452Z,61.91
2023-01-10T22:29:28.359Z,56.47
2023-01-10T22:34:30.176Z,60.80
2023-01-10T22:39:32.136Z,69.58
2023-01-10T22:44:34.020Z,64.12
2023-01-10T22:49:35.768Z,63.23
2023-01-10T22:54:37.487Z,60.71
2023-01-10T22:59:39.169Z,64.86
2023-01-10T23:04:40.855Z,60.17
2023-01-10T23:09:42.535Z,55.77
2023-01-10T23:14:44.995Z,67.35
2023-01-10T23:19:46.776Z,64.02
2023-01-10T23:24:48.543Z,58.37
2023-01-10T23:29:50.215Z,64.01
2023-01-10T23:34:52.064Z,62.45
2023-01-10T23:39:53.709Z,59.40
2023-01-10T23:44:55.281Z,59.59
2023-01-10T23:49:56.953Z,66.36
2023-01-10T23:54:58.563Z,63.91
